createdAt,value
2022-10-20T00:14:32.336Z,13.60
2022-10-20T00:29:34.241Z,22.38
2022-10-20T00:44:51.230Z,31.25
2022-10-20T00:59:53.996Z,46.05
2022-10-20T01:15:07.938Z,52.17
2022-10-20T01:30:14.501Z,34.22
2022-10-20T01:45:21.081Z,34.53
2022-10-20T02:00:23.358Z,21.33
2022-10-20T02:15:27.891Z,24.67
2022-10-20T02:30:31.259Z,23.02
2022-10-20T02:45:33.071Z,19.73
2022-10-20T03:00:34.903Z,16.75
2022-10-20T03:15:37.455Z,21.75
2022-10-20T03:30:39.380Z,17.88
2022-10-20T03:45:42.700Z,18.95
2022-10-20T04:00:44.613Z,17.58
2022-10-20T04:15:46.494Z,16.27
2022-10-20T04:30:49.284Z,12.85
2022-10-20T04:45:51.400Z,16.40
2022-10-20T05:00:53.446Z,18.88
2022-10-20T05:15:55.596Z,20.60
2022-10-20T05:31:01.627Z,22.25
2022-10-20T05:46:04.934Z,24.33
2022-10-20T06:01:17.960Z,26.90
2022-10-20T06:16:25.082Z,29.23
2022-10-20T06:31:29.641Z,29.63
2022-10-20T06:46:33.723Z,24.83
2022-10-20T07:01:37.487Z,27.10
2022-10-20T07:16:39.669Z,23.08
2022-10-20T07:31:44.866Z,18.42
2022-10-20T07:46:46.866Z,14.00
2022-10-20T08:01:48.833Z,14.05
2022-10-20T08:16:53.837Z,9.70
2022-10-20T08:31:55.811Z,11.75
2022-10-20T08:47:00.142Z,13.07
2022-10-20T09:02:03.599Z,15.93
2022-10-20T09:17:12.888Z,11.02
2022-10-20T09:32:56.321Z,12.88
2022-10-20T09:47:46.872Z,7.83
2022-10-20T10:02:48.729Z,8.55
2022-10-20T10:17:51.249Z,7.38
2022-10-20T10:32:53.467Z,8.52
2022-10-20T10:48:01.196Z,5.50
2022-10-20T11:03:37.592Z,6.72
2022-10-20T11:18:45.218Z,7.77
2022-10-20T11:33:55.783Z,4.80
2022-10-20T11:49:00.334Z,5.07
2022-10-20T12:04:06.704Z,8.15
2022-10-20T12:19:38.328Z,7.93
2022-10-20T12:34:41.825Z,11.43
2022-10-20T12:49:55.717Z,9.70
2022-10-20T13:05:03.388Z,11.60
2022-10-20T13:20:25.739Z,10.65
2022-10-20T13:35:46.857Z,11.52
2022-10-20T13:51:25.127Z,9.48
2022-10-20T14:06:37.333Z,10.67
2022-10-20T14:21:45.220Z,15.02
2022-10-20T14:36:48.494Z,11.50
2022-10-20T14:52:04.000Z,9.73
2022-10-20T15:07:14.450Z,14.25
2022-10-20T15:22:17.456Z,10.07
2022-10-20T15:37:19.287Z,9.57
2022-10-20T15:52:21.543Z,12.07
2022-10-20T16:07:23.421Z,10.13
2022-10-20T16:22:26.655Z,10.10
2022-10-20T16:37:29.936Z,10.10
2022-10-20T16:52:32.866Z,19.45
2022-10-20T17:07:34.977Z,14.30
2022-10-20T17:22:37.273Z,13.02
2022-10-20T17:37:39.426Z,20.45
2022-10-20T17:52:41.502Z,29.60
2022-10-20T18:07:44.402Z,24.25
2022-10-20T18:22:46.322Z,28.50
2022-10-20T18:37:52.555Z,27.83
2022-10-20T18:52:54.710Z,26.42
2022-10-20T19:07:56.557Z,29.10
2022-10-20T19:22:58.524Z,27.08
2022-10-20T19:38:00.491Z,26.73
2022-10-20T19:53:02.423Z,30.20
2022-10-20T20:08:04.856Z,24.55
2022-10-20T20:23:06.872Z,26.17
2022-10-20T20:38:08.816Z,31.33
2022-10-20T20:53:10.674Z,30.80
2022-10-20T21:08:12.794Z,30.75
2022-10-20T21:23:14.689Z,30.08
2022-10-20T21:38:16.596Z,29.70
2022-10-20T21:53:18.446Z,27.55
2022-10-20T22:08:20.301Z,28.63
2022-10-20T22:23:22.210Z,27.33
2022-10-20T22:38:24.118Z,27.55
2022-10-20T22:53:26.142Z,31.10
2022-10-20T23:08:30.655Z,30.50
2022-10-20T23:23:38.267Z,30.55
2022-10-20T23:38:40.989Z,34.20
2022-10-20T23:53:42.810Z,32.83
